Avon, CO (81620)

10:38 AM MDT em 02 de Setembro de 2014 (GMT -0600)
WildRidge - Neighborhood | Change Station
CLOSE
Current Station
Estação Meteorológica Particular
Location: Avon, CO
Altitude: 8156 ft
Estações Meteorológicas Próximas

Elev 8156 ft 39.66 °N, 106.55 °W | Updated 8 minutes ago

Céu Limpo
Céu Limpo
59.2 °F
Aparente 59.2 °F
N
1.0
Vento Variável Vento de ESE
Gusts 3.0 mph

Hoje
Máxima -- | Mínima -- °F
--% Possibilidade de Precip.
Ontem
Máxima -- | Mínima -- °F
Precip. -- pol
6:35 AM 7:35 PM
Quarto crescente, 53% visible
Pressão 30.28 pol
Visibilidade 10.0 milhas
Nuvens Céu Limpo
Ponto de Orvalho 41 °F
Humidade 51%
Chuva 0.00 pol
Altura de Neve 14 in , 90 in , 0 in
UV 5 em vez de 12
Pólen 10.10 em vez de 12
Qualidade do Ar Não disponível
Flu Activity Não disponível
METAR KEGE 021550Z 00000KT 10SM SKC 14/03 A3028

More Conditions Fewer Conditions

Pressão 30.28 pol
Visibilidade 10.0 milhas
Nuvens Céu Limpo
Ponto de Orvalho 41 °F
Humidade 51%
Chuva 0.00 pol
Altura de Neve 14 in , 90 in , 0 in
UV 5 em vez de 12
Pólen 10.10 em vez de 12
Qualidade do Ar Não disponível
Flu Activity Não disponível
METAR KEGE 021550Z 00000KT 10SM SKC 14/03 A3028

More Conditions Fewer Conditions

10-Day Weather Forecast

Almanac

Astronomia

Sep. 02, 2014 Nascer Pôr
Hora atual 06:35 MDT 19:35 MDT
Crepúsculo civil 06:07 MDT 20:02 MDT
Crepúsculo náutico 05:34 MDT 20:35 MDT
Crepúsculo astronómico 05:00 MDT 21:09 MDT
Lua 14:20 MDT Sem o pôr da Lua
Comprimento da luz visível 13h 55m
Duração do Dia
13h 00m
Tomorrow will be 2m 29s shorter.
Quarto crescente, 53% of the Moon is Illuminated
Hoje
Quarto crescente
Set 8
Lua cheia
Set 15
Quarto minguante
Set 24
Nova
Out 1
Quarto crescente

Extremos de Hoje

situação na parte mais alta situação na parte mais baixa

Community

WunderPhotos

Upload Photos

1,749,715 fotografias inseridas!

Nearby

Altura da Neve

Estação altura Altitude
Mccoy Park 14 in 9480 ft
Vail Mountain 90 in 10300 ft
Summit Ranch 0 in 9400 ft
Copper Mountain 0 in 10500 ft
Kiln 1 in 9600 ft

Actividade Sísmisca

Cidade Distância Mag. Hora & Data
Não há notícias de atividade sísmica recente perto de si.
Mínima magnitude apresentada é 2.5.

Temperaturas das Águas Costeiras

Local Temperatura
Não há estações a reportar dados

Estações Meteorológicas Próximas